| time (UTC) | temp C | wind direction | speed KPH | gust KPH | rain 1hr cm | rain 24hr cm | rain mn cm | humidity % | barometer mb |
| 20260906204508 | 27 | 135 | 3.2 | 8.0 | 0.00 | 0.00 | 0.00 | 62 | 1010.0 |
| 20260906203004 | 26 | 233 | 0.0 | 11.3 | 0.00 | 0.00 | 0.00 | 68 | 1009.9 |
| 20260906201501 | 25 | 214 | 3.2 | 14.5 | 0.00 | 0.00 | 0.00 | 72 | 1009.9 |
| 20260906194605 | 23 | 294 | 12.9 | 20.9 | 0.00 | 0.00 | 0.00 | 76 | 1010.2 |
| 20260906193108 | 23 | 285 | 12.9 | 24.1 | 0.00 | 0.00 | 0.00 | 77 | 1010.8 |
| 20260906191618 | 23 | 265 | 14.5 | 20.9 | 0.00 | 0.00 | 0.00 | 77 | 1010.9 |
| 20260906190100 | 23 | 270 | 12.9 | 19.3 | 0.00 | 0.00 | 0.00 | 77 | 1011.2 |
| 20260906184558 | 23 | 281 | 14.5 | 22.5 | 0.00 | 0.00 | 0.00 | 77 | 1011.1 |
| 20260906183101 | 23 | 264 | 17.7 | 27.4 | 0.00 | 0.00 | 0.00 | 77 | 1011.0 |
| 20260906181557 | 23 | 271 | 19.3 | 30.6 | 0.00 | 0.00 | 0.00 | 75 | 1011.0 |
| 20260906180057 | 23 | 250 | 24.1 | 33.8 | 0.00 | 0.00 | 0.00 | 72 | 1010.8 |
| 20260906174609 | 24 | 248 | 19.3 | 43.5 | 0.00 | 0.00 | 0.00 | 74 | 1010.9 |
| 20260906173053 | 25 | 224 | 30.6 | 43.5 | 0.00 | 0.00 | 0.00 | 73 | 1010.6 |
| 20260906171551 | 25 | 221 | 29.0 | 43.5 | 0.00 | 0.00 | 0.00 | 78 | 1011.0 |
| 20260906170051 | 25 | 233 | 29.0 | 40.2 | 0.00 | 0.00 | 0.00 | 82 | 1011.1 |
| 20260906164550 | 25 | 119 | 4.8 | 19.3 | 0.00 | 0.00 | 0.00 | 87 | 1011.2 |
| 20260906163052 | 25 | 317 | 4.8 | 17.7 | 0.00 | 0.00 | 0.00 | 87 | 1011.2 |
| 20260906161550 | 25 | 213 | 4.8 | 19.3 | 0.00 | 0.00 | 0.00 | 87 | 1011.1 |
| 20260906160047 | 25 | 24 | 8.0 | 24.1 | 0.00 | 0.00 | 0.00 | 87 | 1010.9 |
| 20260906154545 | 25 | 175 | 12.9 | 25.7 | 0.00 | 0.00 | 0.00 | 87 | 1010.7 |
| 20260906153100 | 25 | 169 | 12.9 | 30.6 | 0.00 | 0.00 | 0.00 | 86 | 1010.5 |
| 20260906151544 | 25 | 165 | 8.0 | 16.1 | 0.00 | 0.00 | 0.00 | 86 | 1010.1 |
| 20260906150044 | 25 | 161 | 9.7 | 19.3 | 0.00 | 0.00 | 0.00 | 86 | 1010.4 |
| 20260906144542 | 25 | 128 | 6.4 | 16.1 | 0.00 | 0.00 | 0.00 | 85 | 1010.2 |
| 20260906143037 | 24 | 116 | 6.4 | 14.5 | 0.00 | 0.00 | 0.00 | 87 | 1010.4 |
| 20260906141538 | 23 | 93 | 3.2 | 8.0 | 0.00 | 0.00 | 0.00 | 89 | 1010.5 |
| 20260906140038 | 22 | 128 | 3.2 | 6.4 | 0.00 | 0.00 | 0.00 | 90 | 1010.4 |
| 20260906134535 | 21 | 311 | 0.0 | 4.8 | 0.00 | 0.00 | 0.00 | 90 | 1010.6 |
| 20260906133044 | 21 | 311 | 0.0 | 3.2 | 0.00 | 0.00 | 0.00 | 90 | 1010.6 |
| 20260906131535 | 20 | 311 | 0.0 | 4.8 | 0.00 | 0.00 | 0.00 | 90 | 1010.6 |
| 20260906130035 | 20 | 311 | 0.0 | 4.8 | 0.00 | 0.00 | 0.00 | 90 | 1010.8 |
| 20260906124531 | 20 | 90 | 0.0 | 4.8 | 0.00 | 0.00 | 0.00 | 90 | 1010.4 |
| 20260906123037 | 20 | 90 | 1.6 | 6.4 | 0.00 | 0.00 | 0.00 | 90 | 1010.0 |
| 20260906121530 | 20 | 81 | 0.0 | 6.4 | 0.00 | 0.00 | 0.00 | 90 | 1009.8 |
| 20260906120027 | 20 | 68 | 3.2 | 9.7 | 0.00 | 0.00 | 0.00 | 90 | 1009.4 |
| 20260906114531 | 20 | 64 | 0.0 | 4.8 | 0.00 | 0.00 | 0.00 | 90 | 1009.6 |
| 20260906113026 | 20 | 78 | 9.7 | 16.1 | 0.00 | 0.00 | 0.00 | 90 | 1009.4 |
| 20260906111522 | 20 | 92 | 9.7 | 12.9 | 0.00 | 0.00 | 0.00 | 90 | 1009.4 |
| 20260906110021 | 20 | 94 | 4.8 | 14.5 | 0.00 | 0.00 | 0.00 | 89 | 1009.5 |
| 20260906104520 | 20 | 83 | 3.2 | 14.5 | 0.00 | 0.03 | 0.00 | 89 | 1009.6 |
| 20260906103018 | 21 | 85 | 6.4 | 12.9 | 0.00 | 0.03 | 0.00 | 89 | 1009.5 |
| 20260906101517 | 21 | 88 | 4.8 | 6.4 | 0.00 | 0.03 | 0.00 | 88 | 1009.7 |
| 20260906100016 | 21 | 91 | 4.8 | 6.4 | 0.00 | 0.03 | 0.00 | 88 | 1009.9 |
| 20260906094515 | 22 | 128 | 0.0 | 4.8 | 0.00 | 0.03 | 0.00 | 88 | 1010.1 |
| 20260906093032 | 21 | 128 | 1.6 | 6.4 | 0.00 | 0.03 | 0.00 | 88 | 1010.1 |
| 20260906091520 | 21 | 135 | 6.4 | 12.9 | 0.00 | 0.03 | 0.00 | 89 | 1010.1 |
| 20260906090013 | 21 | 115 | 6.4 | 11.3 | 0.00 | 0.03 | 0.00 | 89 | 1010.2 |
| 20260906084511 | 21 | 118 | 3.2 | 11.3 | 0.00 | 0.03 | 0.00 | 88 | 1010.0 |
| 20260906083010 | 21 | 92 | 8.0 | 14.5 | 0.00 | 0.03 | 0.00 | 87 | 1010.1 |
| 20260906081505 | 22 | 96 | 6.4 | 11.3 | 0.00 | 0.03 | 0.00 | 85 | 1009.9 |
| 20260906080002 | 22 | 118 | 4.8 | 11.3 | 0.00 | 0.03 | 0.00 | 86 | 1009.6 |
| 20260906074502 | 22 | 115 | 3.2 | 11.3 | 0.00 | 0.03 | 0.00 | 85 | 1009.5 |
| 20260906073159 | 22 | 106 | 4.8 | 6.4 | 0.00 | 0.03 | 0.00 | 85 | 1009.7 |
| 20260906071557 | 22 | 142 | 3.2 | 12.9 | 0.00 | 0.03 | 0.00 | 85 | 1009.5 |
| 20260906070118 | 22 | 121 | 8.0 | 12.9 | 0.00 | 0.03 | 0.00 | 85 | 1009.2 |
| 20260906064556 | 22 | 149 | 6.4 | 12.9 | 0.00 | 0.03 | 0.00 | 84 | 1009.4 |
| 20260906063054 | 22 | 159 | 1.6 | 8.0 | 0.00 | 0.03 | 0.00 | 84 | 1009.4 |
| 20260906061609 | 22 | 159 | 1.6 | 4.8 | 0.00 | 0.03 | 0.00 | 82 | 1009.5 |
| 20260906060048 | 23 | 137 | 6.4 | 11.3 | 0.00 | 0.03 | 0.00 | 81 | 1009.3 |
| 20260906054547 | 23 | 103 | 8.0 | 16.1 | 0.00 | 0.03 | 0.00 | 79 | 1009.1 |
| 20260906053051 | 23 | 148 | 4.8 | 16.1 | 0.00 | 0.03 | 0.00 | 79 | 1009.1 |
| 20260906051545 | 23 | 118 | 4.8 | 12.9 | 0.00 | 0.03 | 0.00 | 80 | 1009.1 |
| 20260906050059 | 23 | 126 | 6.4 | 12.9 | 0.00 | 0.03 | 0.00 | 81 | 1009.1 |
| 20260906044540 | 23 | 94 | 4.8 | 12.9 | 0.00 | 0.03 | 0.03 | 80 | 1009.4 |
| 20260906043048 | 23 | 138 | 1.6 | 12.9 | 0.00 | 0.03 | 0.03 | 81 | 1009.6 |
| 20260906041539 | 23 | 149 | 4.8 | 12.9 | 0.00 | 0.03 | 0.03 | 81 | 1009.4 |
| 20260906040052 | 23 | 98 | 12.9 | 22.5 | 0.00 | 0.03 | 0.03 | 81 | 1008.8 |
| 20260906034540 | 23 | 38 | 14.5 | 20.9 | 0.00 | 0.03 | 0.03 | 81 | 1008.7 |
| 20260906033038 | 24 | 63 | 14.5 | 20.9 | 0.00 | 0.03 | 0.03 | 79 | 1008.8 |
| 20260906031537 | 25 | 120 | 3.2 | 6.4 | 0.00 | 0.03 | 0.03 | 74 | 1008.8 |
| 20260906030037 | 25 | 44 | 3.2 | 14.5 | 0.00 | 0.03 | 0.03 | 74 | 1009.1 |
| 20260906024537 | 25 | 147 | 11.3 | 17.7 | 0.00 | 0.03 | 0.03 | 76 | 1008.6 |
| 20260906023046 | 23 | 123 | 6.4 | 11.3 | 0.00 | 0.03 | 0.03 | 78 | 1008.9 |
| 20260906021535 | 24 | 128 | 0.0 | 1.6 | 0.00 | 0.03 | 0.03 | 78 | 1009.2 |
| 20260906020036 | 24 | 128 | 1.6 | 3.2 | 0.00 | 0.03 | 0.03 | 76 | 1009.1 |
| 20260906014544 | 25 | 128 | 1.6 | 3.2 | 0.00 | 0.03 | 0.03 | 76 | 1009.3 |
| 20260906013034 | 25 | 128 | 0.0 | 3.2 | 0.00 | 0.03 | 0.03 | 74 | 1008.9 |
| 20260906011540 | 25 | 128 | 3.2 | 6.4 | 0.00 | 0.03 | 0.03 | 72 | 1008.9 |
| 20260906010032 | 26 | 94 | 8.0 | 11.3 | 0.00 | 0.03 | 0.03 | 69 | 1008.9 |
| 20260906004532 | 26 | 327 | 1.6 | 4.8 | 0.00 | 0.03 | 0.03 | 65 | 1009.7 |
| 20260906003032 | 27 | 327 | 0.0 | 4.8 | 0.00 | 0.03 | 0.03 | 63 | 1009.8 |
| 20260906001531 | 28 | 134 | 0.0 | 0.0 | 0.00 | 0.03 | 0.03 | 58 | 1009.4 |
| 20260906000031 | 29 | 134 | 0.0 | 1.6 | 0.00 | 0.03 | 0.03 | 58 | 1009.4 |
| 20260905234532 | 30 | 134 | 0.0 | 4.8 | 0.00 | 0.03 | 0.03 | 54 | 1009.3 |
| 20260905233030 | 30 | 144 | 3.2 | 9.7 | 0.00 | 0.03 | 0.03 | 51 | 1009.0 |
| 20260905231529 | 30 | 121 | 9.7 | 14.5 | 0.00 | 0.03 | 0.03 | 49 | 1008.6 |
| 20260905230128 | 31 | 104 | 9.7 | 22.5 | 0.00 | 0.03 | 0.03 | 48 | 1008.1 |
| 20260905224534 | 32 | 100 | 12.9 | 24.1 | 0.00 | 0.03 | 0.03 | 47 | 1007.4 |
| 20260905223033 | 32 | 85 | 16.1 | 30.6 | 0.00 | 0.03 | 0.03 | 48 | 1007.0 |
| 20260905221524 | 32 | 145 | 11.3 | 24.1 | 0.00 | 0.03 | 0.03 | 47 | 1007.2 |
| 20260905220024 | 33 | 109 | 16.1 | 27.4 | 0.00 | 0.03 | 0.03 | 47 | 1007.6 |
| 20260905214521 | 33 | 91 | 17.7 | 29.0 | 0.00 | 0.03 | 0.03 | 46 | 1007.8 |
| 20260905213020 | 33 | 96 | 9.7 | 22.5 | 0.00 | 0.03 | 0.03 | 46 | 1007.8 |
| 20260905211521 | 33 | 84 | 12.9 | 27.4 | 0.00 | 0.03 | 0.03 | 45 | 1008.1 |
| 20260905210017 | 33 | 134 | 12.9 | 24.1 | 0.00 | 0.03 | 0.03 | 45 | 1008.0 |